Time;durP1;ratioP1;P1;durP2;ratioP2;P2;SDS_P1;SDS_P2;PMS_P1;PMS_P2;Temp;Humidity;BMP_temperature;BMP_pressure;BME280_temperature;BME280_humidity;BME280_pressure;Samples;Min_cycle;Max_cycle;Signal;HPM_P1;HPM_P2
2022/04/08 00:02:29;;;;;;;0.80;0.50;;;;;;;19.73;44.22;94668.88;10281339;28;20054;-58
2022/04/08 00:07:48;;;;;;;0.77;0.40;;;;;;;19.72;44.11;94675.44;10297310;28;20490;-57
2022/04/08 00:13:07;;;;;;;1.15;0.60;;;;;;;19.72;44.21;94674.66;10288637;28;20498;-58
2022/04/08 00:18:29;;;;;;;0.50;0.40;;;;;;;19.71;44.17;94684.69;10282411;28;20051;-58
2022/04/08 00:23:49;;;;;;;0.77;0.40;;;;;;;19.70;44.19;94668.84;10285962;28;20054;-57
2022/04/08 00:29:08;;;;;;;0.40;0.40;;;;;;;19.68;44.18;94681.91;10270046;28;20559;-57
2022/04/08 00:34:28;;;;;;;0.70;0.30;;;;;;;19.68;44.01;94682.72;10282629;28;20494;-57
2022/04/08 00:39:48;;;;;;;1.38;0.50;;;;;;;19.67;44.11;94696.59;10287951;28;20058;-56
2022/04/08 00:45:07;;;;;;;0.40;0.40;;;;;;;19.66;44.08;94685.03;10285450;28;20610;-57
2022/04/08 00:50:29;;;;;;;0.60;0.38;;;;;;;19.65;44.13;94693.50;10285516;28;20074;-58
2022/04/08 00:55:48;;;;;;;0.93;0.45;;;;;;;19.64;43.96;94697.34;10308292;28;20054;-57
2022/04/08 01:01:08;;;;;;;0.77;0.40;;;;;;;19.63;44.10;94714.69;10292133;28;20050;-57
2022/04/08 01:06:28;;;;;;;0.70;0.50;;;;;;;19.63;43.92;94718.16;10292998;28;20051;-58
2022/04/08 01:11:48;;;;;;;0.68;0.47;;;;;;;19.61;44.02;94715.06;10290473;28;20058;-56
2022/04/08 01:17:07;;;;;;;0.75;0.40;;;;;;;19.61;43.95;94727.81;10282009;28;20102;-57
2022/04/08 01:22:28;;;;;;;0.38;0.30;;;;;;;19.60;43.90;94728.94;10299824;28;20047;-57
2022/04/08 01:27:48;;;;;;;1.08;0.50;;;;;;;19.58;43.94;94732.00;10292068;28;20055;-57
2022/04/08 01:33:07;;;;;;;1.08;0.40;;;;;;;19.58;43.88;94748.22;10288435;28;20061;-57
2022/04/08 01:38:27;;;;;;;0.50;0.32;;;;;;;19.56;43.95;94728.91;10291544;28;20461;-58
2022/04/08 01:43:46;;;;;;;0.50;0.50;;;;;;;19.55;43.94;94754.38;10292709;28;20058;-57
2022/04/08 01:49:05;;;;;;;0.65;0.40;;;;;;;19.53;43.83;94762.84;10291652;28;20106;-58
2022/04/08 01:54:24;;;;;;;0.75;0.50;;;;;;;19.53;43.88;94768.25;10305547;28;20042;-57
2022/04/08 01:59:44;;;;;;;0.50;0.40;;;;;;;19.52;43.73;94779.41;10292864;28;20494;-57
2022/04/08 02:05:04;;;;;;;0.63;0.32;;;;;;;19.50;43.78;94779.81;10303701;28;20043;-58
2022/04/08 02:10:25;;;;;;;0.47;0.30;;;;;;;19.50;43.95;94785.22;10303511;28;20050;-57
2022/04/08 02:15:46;;;;;;;0.73;0.50;;;;;;;19.49;43.85;94783.66;10306302;28;20043;-57
2022/04/08 02:21:05;;;;;;;0.38;0.30;;;;;;;19.48;43.86;94787.50;10287627;28;20075;-57
2022/04/08 02:26:25;;;;;;;0.50;0.30;;;;;;;19.46;43.82;94800.59;10291777;28;20054;-58
2022/04/08 02:31:44;;;;;;;0.70;0.30;;;;;;;19.46;43.87;94803.28;10291250;28;20063;-57
2022/04/08 02:37:07;;;;;;;0.93;0.82;;;;;;;19.45;43.86;94811.78;10286673;28;20552;-57
2022/04/08 02:42:30;;;;;;;0.82;0.60;;;;;;;19.43;43.85;94830.28;10304422;28;20050;-57
2022/04/08 02:47:49;;;;;;;0.43;0.40;;;;;;;19.42;43.67;94817.91;10287448;28;20121;-56
2022/04/08 02:53:09;;;;;;;0.38;0.30;;;;;;;19.41;43.83;94814.44;10288729;28;20090;-58
2022/04/08 02:58:28;;;;;;;0.82;0.40;;;;;;;19.40;43.70;94845.28;10289122;28;20055;-57
2022/04/08 03:03:48;;;;;;;0.75;0.50;;;;;;;19.40;43.83;94845.28;10301354;28;20478;-57
2022/04/08 03:09:08;;;;;;;0.30;0.30;;;;;;;19.39;43.73;94854.53;10285231;28;20461;-57
2022/04/08 03:14:27;;;;;;;0.40;0.30;;;;;;;19.37;43.69;94854.13;10297698;28;20051;-56
2022/04/08 03:19:46;;;;;;;0.50;0.38;;;;;;;19.36;43.73;94857.97;10297875;28;20047;-57
2022/04/08 03:25:06;;;;;;;0.57;0.40;;;;;;;19.36;43.88;94866.06;10285166;28;20103;-57
2022/04/08 03:30:27;;;;;;;0.40;0.30;;;;;;;19.34;43.83;94877.22;10284734;28;20683;-57
2022/04/08 03:35:46;;;;;;;0.50;0.40;;;;;;;19.33;43.88;94866.81;10296343;28;20078;-57
2022/04/08 03:41:06;;;;;;;0.52;0.35;;;;;;;19.33;43.68;94891.88;10286361;28;20062;-57
2022/04/08 03:46:27;;;;;;;0.40;0.40;;;;;;;19.32;43.89;94900.34;10285496;28;20042;-57
2022/04/08 03:51:47;;;;;;;0.73;0.40;;;;;;;19.32;43.76;94900.34;10287784;28;20054;-57
2022/04/08 03:57:07;;;;;;;0.43;0.40;;;;;;;19.30;43.82;94899.94;10301372;28;20050;-57
2022/04/08 04:02:26;;;;;;;0.50;0.40;;;;;;;19.30;43.70;94894.53;10287982;28;20081;-58
2022/04/08 04:07:45;;;;;;;0.38;0.30;;;;;;;19.29;43.77;94903.81;10298499;28;20504;-57
2022/04/08 04:13:04;;;;;;;0.40;0.32;;;;;;;19.29;43.76;94914.59;10283106;28;20617;-58
2022/04/08 04:18:25;;;;;;;0.98;0.60;;;;;;;19.28;44.22;94908.41;10296062;28;20038;-57
2022/04/08 04:23:44;;;;;;;0.30;0.30;;;;;;;19.29;44.17;94928.88;10285434;28;20441;-57
2022/04/08 04:29:03;;;;;;;0.75;0.40;;;;;;;19.30;43.83;94938.50;10283272;28;20059;-58
2022/04/08 04:34:23;;;;;;;1.08;0.40;;;;;;;19.31;44.06;94950.88;10286519;28;20101;-57
2022/04/08 04:39:42;;;;;;;0.68;0.32;;;;;;;19.32;44.28;94941.63;10284514;28;20051;-56
2022/04/08 04:45:02;;;;;;;0.82;0.40;;;;;;;19.34;44.42;94955.53;10285851;28;20433;-57
2022/04/08 04:50:22;;;;;;;0.40;0.40;;;;;;;19.38;44.51;94957.50;10284619;28;20114;-58
2022/04/08 04:55:41;;;;;;;0.95;0.57;;;;;;;19.40;44.56;94974.88;10284138;28;20062;-58
2022/04/08 05:01:01;;;;;;;1.08;0.40;;;;;;;19.43;44.45;94979.56;10284870;28;20066;-57
2022/04/08 05:06:20;;;;;;;1.65;0.50;;;;;;;19.44;44.78;94970.31;10281454;28;20047;-57
2022/04/08 05:11:39;;;;;;;2.42;0.60;;;;;;;19.48;44.71;94973.84;10297324;28;20045;-57
2022/04/08 05:16:59;;;;;;;1.33;0.60;;;;;;;19.53;44.80;94992.41;10281075;28;20055;-57
2022/04/08 05:22:18;;;;;;;1.98;0.80;;;;;;;19.56;44.81;95001.69;10282175;28;20073;-58
2022/04/08 05:27:39;;;;;;;3.65;1.08;;;;;;;19.62;44.72;95012.97;10282054;28;20449;-57
2022/04/08 05:32:58;;;;;;;7.72;1.65;;;;;;;19.66;44.64;95011.06;10274481;28;20063;-57
2022/04/08 05:38:18;;;;;;;6.30;1.85;;;;;;;19.69;44.40;95030.03;10267631;28;20082;-57
2022/04/08 05:43:38;;;;;;;6.60;2.08;;;;;;;19.73;44.34;95039.00;10300879;28;20042;-57
2022/04/08 05:48:58;;;;;;;3.63;1.60;;;;;;;19.70;38.31;95057.84;10302771;28;20722;-57
2022/04/08 05:54:17;;;;;;;3.40;1.05;;;;;;;19.49;34.83;95056.41;10296719;28;20050;-58
2022/04/08 05:59:39;;;;;;;6.00;1.45;;;;;;;19.54;37.27;95072.31;10290400;28;20055;-58
2022/04/08 06:04:58;;;;;;;5.50;1.70;;;;;;;19.61;38.24;95082.41;10291846;28;20097;-57
2022/04/08 06:10:20;;;;;;;5.60;1.50;;;;;;;19.66;38.31;95095.63;10291923;28;20051;-58
2022/04/08 06:15:39;;;;;;;6.32;1.60;;;;;;;19.72;38.58;95115.03;10284754;28;20054;-57
2022/04/08 06:21:01;;;;;;;5.13;1.50;;;;;;;19.76;38.77;95115.84;10291561;28;20055;-57
2022/04/08 06:26:21;;;;;;;6.70;1.52;;;;;;;19.78;38.98;95129.78;10296226;28;20053;-57
2022/04/08 06:31:40;;;;;;;6.53;1.55;;;;;;;19.81;39.08;95123.63;10292362;28;20494;-57
2022/04/08 06:36:59;;;;;;;3.15;1.35;;;;;;;19.83;39.47;95128.66;10289016;28;20071;-58
2022/04/08 06:42:19;;;;;;;2.97;1.30;;;;;;;19.85;39.50;95132.53;10301628;28;20039;-57
2022/04/08 06:47:46;;;;;;;3.95;1.38;;;;;;;19.89;39.64;95152.28;10299360;28;20046;-57
2022/04/08 06:53:06;;;;;;;5.60;1.40;;;;;;;19.91;39.89;95154.63;10283440;28;20061;-56
2022/04/08 06:58:26;;;;;;;4.53;1.50;;;;;;;19.92;39.95;95175.88;10289398;28;20050;-57
2022/04/08 07:03:45;;;;;;;4.40;1.30;;;;;;;19.95;39.71;95166.25;10290707;28;20059;-57
2022/04/08 07:09:05;;;;;;;2.67;1.40;;;;;;;19.97;39.69;95171.31;10291774;28;20054;-58
2022/04/08 07:14:25;;;;;;;2.88;1.13;;;;;;;19.99;39.60;95179.84;10300484;28;20043;-57
2022/04/08 07:19:44;;;;;;;4.55;1.25;;;;;;;19.99;39.58;95190.66;10296077;28;20494;-57
2022/04/08 07:25:05;;;;;;;2.90;1.30;;;;;;;20.01;39.47;95207.28;10282338;28;20073;-57
2022/04/08 07:30:25;;;;;;;2.85;1.10;;;;;;;20.02;39.55;95219.66;10287014;28;20574;-57
2022/04/08 07:35:45;;;;;;;3.97;1.10;;;;;;;20.02;39.62;95239.34;10284968;28;20105;-57
2022/04/08 07:41:04;;;;;;;3.92;1.20;;;;;;;20.05;39.41;95243.25;10284913;28;20051;-58
2022/04/08 07:46:24;;;;;;;3.53;1.27;;;;;;;20.04;39.37;95211.97;10291815;28;20603;-57
2022/04/08 07:51:43;;;;;;;3.30;1.30;;;;;;;20.04;39.43;95242.47;10289323;28;20051;-57
2022/04/08 07:57:03;;;;;;;2.72;1.10;;;;;;;20.04;39.33;95228.94;10282715;28;20058;-58
2022/04/08 08:02:23;;;;;;;4.63;1.23;;;;;;;20.01;35.30;95235.06;10275347;28;20104;-57
2022/04/08 08:07:51;;;;;;;2.20;0.90;;;;;;;19.99;37.46;95237.38;10281804;28;20055;-58
2022/04/08 08:13:11;;;;;;;3.75;1.20;;;;;;;20.01;37.83;95245.13;10271982;28;20509;-59
2022/04/08 08:18:30;;;;;;;4.65;1.17;;;;;;;20.02;38.10;95241.28;10292732;28;20074;-59
2022/04/08 08:23:50;;;;;;;2.05;0.85;;;;;;;20.01;37.97;95235.06;10289975;28;20035;-59
2022/04/08 08:29:10;;;;;;;2.80;1.20;;;;;;;20.03;38.02;95242.81;10275843;28;20422;-59
2022/04/08 08:34:30;;;;;;;3.08;0.90;;;;;;;20.03;38.16;95253.63;10285941;28;20086;-55
2022/04/08 08:39:49;;;;;;;3.17;1.05;;;;;;;20.02;38.30;95252.88;10283390;28;20077;-57
2022/04/08 08:45:11;;;;;;;3.45;1.00;;;;;;;20.04;38.29;95257.91;10279510;28;20074;-58
2022/04/08 08:50:31;;;;;;;2.75;1.10;;;;;;;20.04;38.47;95249.81;10293165;28;20050;-58
2022/04/08 08:55:51;;;;;;;2.10;0.90;;;;;;;20.05;38.53;95229.72;10286053;28;20387;-58
2022/04/08 09:01:11;;;;;;;2.83;1.02;;;;;;;20.06;38.54;95236.69;10278437;28;20383;-58
2022/04/08 09:06:40;;;;;;;1.98;0.80;;;;;;;20.07;38.92;95240.94;10286393;28;20074;-57
2022/04/08 09:12:13;;;;;;;1.83;0.80;;;;;;;20.07;38.86;95217.41;10287253;28;20053;-57
2022/04/08 09:17:33;;;;;;;1.67;0.93;;;;;;;20.08;38.93;95227.06;10293495;28;20043;-58
2022/04/08 09:22:55;;;;;;;1.55;0.73;;;;;;;20.09;39.14;95219.75;10293502;28;20085;-56
2022/04/08 09:28:17;;;;;;;1.48;0.80;;;;;;;20.10;39.29;95207.78;10293149;28;20494;-58
2022/04/08 09:33:36;;;;;;;0.88;0.70;;;;;;;20.10;39.26;95202.38;10304750;28;20130;-57
2022/04/08 09:38:56;;;;;;;1.75;0.80;;;;;;;20.12;39.34;95217.09;10291019;28;20106;-57
2022/04/08 09:44:23;;;;;;;2.45;0.98;;;;;;;20.12;39.38;95216.31;10288502;28;20051;-58
2022/04/08 09:49:43;;;;;;;1.15;0.80;;;;;;;20.13;39.50;95228.66;10289094;28;20051;-58
2022/04/08 09:55:07;;;;;;;1.25;0.80;;;;;;;20.14;39.45;95227.53;10289022;28;20065;-58
2022/04/08 10:00:27;;;;;;;1.30;0.80;;;;;;;20.12;39.60;95219.03;10290593;28;20514;-58
2022/04/08 10:05:47;;;;;;;2.90;0.70;;;;;;;20.11;39.63;95214.75;10289835;28;20047;-58
2022/04/08 10:11:18;;;;;;;2.80;0.90;;;;;;;20.12;39.54;95203.56;10283550;28;20062;-55
2022/04/08 10:16:41;;;;;;;3.33;0.70;;;;;;;20.13;39.81;95193.53;10267709;28;20055;-58
2022/04/08 10:22:00;;;;;;;9.63;2.70;;;;;;;20.11;40.72;95198.53;10269786;28;20171;-57
2022/04/08 10:27:31;;;;;;;4.03;1.45;;;;;;;20.11;40.94;95202.03;10286514;28;20062;-58
2022/04/08 10:33:02;;;;;;;2.78;1.40;;;;;;;20.13;41.47;95204.34;10290978;28;20034;-58
2022/04/08 10:38:22;;;;;;;3.90;1.13;;;;;;;20.12;41.62;95202.81;10288744;28;20055;-58
2022/04/08 10:43:46;;;;;;;3.05;1.02;;;;;;;20.14;41.43;95203.22;10292232;28;20047;-57
2022/04/08 10:49:08;;;;;;;3.22;1.02;;;;;;;20.15;41.54;95210.97;10275914;28;20046;-58
2022/04/08 10:54:35;;;;;;;2.40;1.00;;;;;;;20.15;41.27;95212.91;10281635;28;20051;-57
2022/04/08 10:59:55;;;;;;;1.40;0.85;;;;;;;20.14;41.07;95211.31;10300413;28;20051;-57
2022/04/08 11:05:16;;;;;;;1.90;0.95;;;;;;;20.12;40.83;95203.56;10276844;28;20061;-58
2022/04/08 11:10:35;;;;;;;2.28;0.90;;;;;;;20.14;40.76;95197.81;10288407;28;20106;-58
2022/04/08 11:15:55;;;;;;;5.97;1.10;;;;;;;20.12;40.74;95187.34;10288985;28;20058;-55
2022/04/08 11:21:17;;;;;;;3.65;1.00;;;;;;;20.12;40.78;95181.94;10301022;28;20509;-57
2022/04/08 11:26:44;;;;;;;2.20;0.90;;;;;;;20.12;40.76;95170.34;10278268;28;20070;-57
2022/04/08 11:32:10;;;;;;;2.78;1.17;;;;;;;20.13;40.81;95166.50;10287589;28;20051;-58
2022/04/08 11:37:30;;;;;;;3.50;1.38;;;;;;;20.12;40.79;95159.53;10289647;28;20406;-58
2022/04/08 11:42:49;;;;;;;6.90;1.80;;;;;;;20.12;40.83;95154.13;10302075;28;20041;-58
2022/04/08 11:48:18;;;;;;;6.22;1.88;;;;;;;20.11;40.84;95128.22;10271877;28;20043;-57
2022/04/08 11:53:46;;;;;;;3.95;1.50;;;;;;;20.12;40.77;95117.06;10284334;28;20061;-57
2022/04/08 11:59:11;;;;;;;4.97;1.52;;;;;;;20.11;40.93;95104.69;10286721;28;20109;-55
2022/04/08 12:04:30;;;;;;;6.07;1.90;;;;;;;20.11;40.90;95101.19;10287875;28;20054;-58
2022/04/08 12:09:53;;;;;;;4.80;1.83;;;;;;;20.10;40.84;95084.22;10285703;28;20043;-57
2022/04/08 12:15:13;;;;;;;7.75;2.10;;;;;;;20.11;41.01;95063.34;10288242;28;20054;-57
2022/04/08 12:20:37;;;;;;;4.63;1.80;;;;;;;20.12;40.99;95062.22;10299952;28;20057;-57
2022/04/08 12:25:59;;;;;;;5.20;1.58;;;;;;;20.11;40.97;95047.13;10286790;28;20071;-57
2022/04/08 12:31:20;;;;;;;6.07;1.85;;;;;;;20.10;41.03;95051.00;10294269;28;20043;-58
2022/04/08 12:36:44;;;;;;;3.92;1.60;;;;;;;20.09;40.92;95035.91;10301719;28;20062;-58
2022/04/08 12:42:05;;;;;;;5.18;1.70;;;;;;;20.09;41.01;95027.81;10282665;28;20089;-58
2022/04/08 12:47:25;;;;;;;5.28;1.85;;;;;;;20.08;40.96;95028.97;10291259;28;20046;-56
2022/04/08 12:52:44;;;;;;;5.60;2.20;;;;;;;20.07;40.97;95032.81;10275799;28;20413;-57
2022/04/08 12:58:03;;;;;;;5.22;2.17;;;;;;;20.06;41.01;95017.75;10292478;28;20065;-57
2022/04/08 13:03:23;;;;;;;3.85;1.60;;;;;;;20.05;41.02;95016.97;10300997;28;20045;-57
2022/04/08 13:08:42;;;;;;;9.52;2.50;;;;;;;20.06;41.35;95020.44;10302420;28;20034;-58
2022/04/08 13:14:02;;;;;;;4.93;2.03;;;;;;;20.06;41.77;95020.44;10293518;28;20129;-58
2022/04/08 13:19:21;;;;;;;7.80;1.98;;;;;;;20.05;41.90;94997.25;10293204;28;20053;-58
2022/04/08 13:24:41;;;;;;;4.18;1.67;;;;;;;20.05;42.26;94997.25;10281454;28;20498;-58
2022/04/08 13:30:00;;;;;;;5.38;1.60;;;;;;;20.03;42.55;94994.94;10287317;28;20042;-59
2022/04/08 13:35:20;;;;;;;4.78;1.80;;;;;;;20.03;42.55;94994.16;10291337;28;20059;-59
2022/04/08 13:40:40;;;;;;;6.10;1.55;;;;;;;20.03;42.19;94994.94;10305889;28;20061;-56
2022/04/08 13:46:00;;;;;;;4.18;1.58;;;;;;;20.02;42.04;94996.09;10291114;28;20518;-58
2022/04/08 13:51:19;;;;;;;3.40;1.40;;;;;;;19.92;39.61;95008.34;10278551;28;20051;-58
2022/04/08 13:56:39;;;;;;;2.70;1.20;;;;;;;19.84;38.77;95012.09;10284126;28;20410;-58
2022/04/08 14:01:58;;;;;;;2.83;1.33;;;;;;;19.69;38.08;95005.72;10290821;28;20050;-57
2022/04/08 14:07:18;;;;;;;2.70;1.27;;;;;;;19.74;40.56;95010.84;10291993;28;20046;-58
2022/04/08 14:12:38;;;;;;;3.28;1.20;;;;;;;19.79;41.26;94996.22;10294127;28;20050;-57
2022/04/08 14:17:58;;;;;;;2.85;1.40;;;;;;;19.84;41.56;94997.81;10291087;28;20054;-57
2022/04/08 14:23:18;;;;;;;2.28;1.20;;;;;;;19.85;41.39;94994.72;10292614;28;20066;-56
2022/04/08 14:28:37;;;;;;;3.60;1.20;;;;;;;19.86;41.51;94992.84;10280282;28;20074;-58
2022/04/08 14:33:57;;;;;;;3.70;1.23;;;;;;;19.87;41.55;94981.63;10304597;28;20042;-58
2022/04/08 14:39:16;;;;;;;2.28;0.98;;;;;;;19.87;41.52;94968.13;10294601;28;20109;-58
2022/04/08 14:44:36;;;;;;;2.70;1.13;;;;;;;19.86;41.35;94953.06;10293684;28;20058;-57
2022/04/08 14:49:55;;;;;;;2.75;1.17;;;;;;;19.86;41.33;94947.66;10277196;28;20050;-58
2022/04/08 14:55:15;;;;;;;1.83;0.95;;;;;;;19.87;41.42;94951.91;10293491;28;20383;-58
2022/04/08 15:00:34;;;;;;;1.35;0.98;;;;;;;19.87;41.18;94927.59;10293821;28;20414;-57
2022/04/08 15:05:54;;;;;;;1.70;0.90;;;;;;;19.85;41.31;94908.25;10293096;28;20443;-58
2022/04/08 15:11:13;;;;;;;2.13;0.90;;;;;;;19.85;41.21;94908.25;10291939;28;20118;-58
2022/04/08 15:16:33;;;;;;;2.00;1.08;;;;;;;19.84;41.22;94903.25;10253365;29;20061;-58
2022/04/08 15:21:54;;;;;;;1.73;0.95;;;;;;;19.83;41.14;94871.97;10288059;28;20285;-58
2022/04/08 15:27:13;;;;;;;2.15;0.95;;;;;;;19.81;41.17;94872.31;10287268;28;20074;-57
2022/04/08 15:32:34;;;;;;;2.97;0.93;;;;;;;19.81;41.16;94858.06;10273089;28;20418;-56
2022/04/08 15:37:54;;;;;;;2.38;0.90;;;;;;;19.79;41.17;94855.72;10304792;28;20050;-57
2022/04/08 15:43:14;;;;;;;2.60;1.10;;;;;;;19.79;41.27;94854.94;10304363;28;20049;-57
2022/04/08 15:48:35;;;;;;;2.70;1.00;;;;;;;19.78;41.23;94837.97;10262574;28;20051;-59
2022/04/08 15:53:55;;;;;;;2.33;1.00;;;;;;;19.77;41.29;94841.03;10264455;28;20044;-58
2022/04/08 15:59:15;;;;;;;1.48;0.90;;;;;;;19.76;41.34;94834.88;10251004;29;20483;-57
2022/04/08 16:04:35;;;;;;;2.30;0.95;;;;;;;19.75;41.25;94825.97;10291607;28;20051;-58
2022/04/08 16:09:55;;;;;;;1.83;0.95;;;;;;;19.75;41.22;94825.97;10296756;28;20050;-58
2022/04/08 16:15:14;;;;;;;1.90;0.93;;;;;;;19.74;41.28;94823.66;10275252;28;20063;-57
2022/04/08 16:20:35;;;;;;;1.83;1.00;;;;;;;19.73;41.13;94827.50;10290351;28;20058;-57
2022/04/08 16:25:55;;;;;;;3.83;1.00;;;;;;;19.73;41.27;94819.38;10319098;28;20533;-57
2022/04/08 16:31:14;;;;;;;2.17;1.00;;;;;;;19.72;41.21;94812.44;10315902;28;20170;-57
2022/04/08 16:36:34;;;;;;;3.13;1.00;;;;;;;19.70;41.12;94809.31;10268467;28;20439;-58
2022/04/08 16:41:54;;;;;;;3.13;1.50;;;;;;;19.66;39.34;94797.66;10262524;28;20050;-55
2022/04/08 16:47:14;;;;;;;2.78;1.30;;;;;;;19.53;39.56;94776.34;10280695;28;20051;-58
2022/04/08 16:52:33;;;;;;;5.65;2.25;;;;;;;19.54;40.13;94764.41;10302527;28;20047;-57
2022/04/08 16:57:56;;;;;;;2.72;1.15;;;;;;;19.55;40.41;94770.59;10289393;28;20460;-56
2022/04/08 17:03:16;;;;;;;2.78;1.67;;;;;;;19.56;40.63;94764.81;10302280;28;20043;-52
2022/04/08 17:08:35;;;;;;;3.33;1.17;;;;;;;19.58;40.82;94780.63;10289163;28;20054;-58
2022/04/08 17:13:54;;;;;;;3.28;1.27;;;;;;;19.60;40.97;94782.97;10298522;28;20120;-58
2022/04/08 17:19:14;;;;;;;1.48;1.10;;;;;;;19.60;41.25;94782.97;10272176;28;20042;-57
2022/04/08 17:24:34;;;;;;;1.52;1.05;;;;;;;19.62;41.33;94786.88;10291593;28;20410;-58
2022/04/08 17:29:54;;;;;;;2.70;1.10;;;;;;;19.63;41.48;94776.81;10284651;28;20062;-58
2022/04/08 17:35:13;;;;;;;3.85;1.10;;;;;;;19.64;41.84;94775.66;10300077;28;20046;-51
2022/04/08 17:40:33;;;;;;;1.35;1.13;;;;;;;19.65;41.94;94766.41;10293289;28;20062;-51
2022/04/08 17:45:53;;;;;;;2.35;1.13;;;;;;;19.66;42.10;94755.25;10292079;28;20255;-56
2022/04/08 17:51:12;;;;;;;2.28;1.20;;;;;;;19.67;42.13;94762.19;10294216;28;20046;-52
2022/04/08 17:56:32;;;;;;;1.90;1.30;;;;;;;19.71;42.12;94754.13;10293546;28;20130;-56
2022/04/08 18:01:51;;;;;;;2.92;1.00;;;;;;;19.72;42.48;94763.81;10301700;28;20070;-56
2022/04/08 18:07:11;;;;;;;1.77;1.00;;;;;;;19.74;42.76;94758.81;10306521;28;20039;-51
2022/04/08 18:12:31;;;;;;;1.63;1.02;;;;;;;19.77;42.76;94765.38;10304231;28;20046;-55
2022/04/08 18:17:51;;;;;;;4.00;1.25;;;;;;;19.79;42.85;94771.97;10295071;28;20058;-53
2022/04/08 18:23:10;;;;;;;3.08;1.08;;;;;;;19.82;42.50;94768.53;10294889;28;20477;-59
2022/04/08 18:28:31;;;;;;;1.58;1.10;;;;;;;19.85;42.74;94773.16;10307925;28;20590;-58
2022/04/08 18:33:53;;;;;;;2.08;1.23;;;;;;;19.88;42.58;94783.22;10289394;28;20059;-57
2022/04/08 18:39:12;;;;;;;1.83;1.20;;;;;;;19.92;42.26;94773.22;10300472;28;20046;-57
2022/04/08 18:44:32;;;;;;;21.75;2.33;;;;;;;19.94;42.31;94781.72;10303600;28;20058;-58
2022/04/08 18:49:52;;;;;;;1.65;1.30;;;;;;;19.97;42.21;94779.44;10293887;28;20078;-57
2022/04/08 18:55:11;;;;;;;5.47;1.27;;;;;;;20.00;42.17;94784.09;10286946;28;20110;-57
2022/04/08 19:00:31;;;;;;;3.35;1.42;;;;;;;20.03;42.12;94789.53;10294082;28;20053;-57
2022/04/08 19:05:51;;;;;;;3.17;1.50;;;;;;;20.05;42.16;94791.84;10290814;28;20138;-51
2022/04/08 19:11:11;;;;;;;2.35;1.40;;;;;;;20.08;42.23;94791.09;10290807;28;20049;-55
2022/04/08 19:16:32;;;;;;;1.98;1.20;;;;;;;20.10;42.50;94791.50;10300829;28;20529;-56
2022/04/08 19:21:52;;;;;;;3.85;1.20;;;;;;;20.14;42.46;94786.88;10288533;28;20058;-56
2022/04/08 19:27:13;;;;;;;3.45;1.40;;;;;;;20.15;42.62;94796.56;10294546;28;20061;-57
2022/04/08 19:32:33;;;;;;;2.83;1.55;;;;;;;20.19;42.60;94801.97;10291566;28;20054;-58
2022/04/08 19:37:52;;;;;;;3.10;1.50;;;;;;;20.20;42.70;94790.00;10292514;28;20043;-59
2022/04/08 19:43:12;;;;;;;7.22;1.60;;;;;;;20.21;42.77;94788.84;10265972;28;20063;-56
2022/04/08 19:48:32;;;;;;;5.80;1.80;;;;;;;20.23;42.53;94795.44;10280878;28;20061;-53
2022/04/08 19:53:52;;;;;;;2.97;1.48;;;;;;;20.23;42.38;94787.34;10289791;28;20113;-53
2022/04/08 19:59:11;;;;;;;3.13;1.60;;;;;;;20.23;42.32;94773.81;10302044;28;20049;-53
2022/04/08 20:04:31;;;;;;;6.47;1.70;;;;;;;20.23;42.22;94765.72;10301241;28;20043;-58
2022/04/08 20:09:50;;;;;;;3.20;1.30;;;;;;;20.25;42.22;94743.69;10284639;28;20046;-60
2022/04/08 20:15:10;;;;;;;2.83;1.42;;;;;;;20.25;42.28;94773.44;10296984;28;20097;-60
2022/04/08 20:20:29;;;;;;;3.90;1.45;;;;;;;20.27;42.21;94763.03;10290730;28;20081;-59
2022/04/08 20:25:49;;;;;;;3.42;1.35;;;;;;;20.26;42.17;94772.28;10290042;28;20054;-58
2022/04/08 20:31:09;;;;;;;2.10;1.30;;;;;;;20.26;42.01;94759.53;10290889;28;20059;-59
2022/04/08 20:36:28;;;;;;;4.20;1.45;;;;;;;20.26;41.73;94764.94;10280056;28;20400;-60
2022/04/08 20:41:48;;;;;;;3.92;1.60;;;;;;;20.26;41.66;94759.53;10261699;28;20043;-57
2022/04/08 20:47:08;;;;;;;2.97;1.30;;;;;;;20.26;41.68;94748.72;10293198;28;20104;-57
2022/04/08 20:52:28;;;;;;;3.72;1.40;;;;;;;20.28;41.61;94759.91;10294058;28;20050;-58
2022/04/08 20:57:48;;;;;;;3.28;1.50;;;;;;;20.27;41.56;94754.91;10286381;28;20118;-58
2022/04/08 21:03:08;;;;;;;1.38;1.02;;;;;;;20.26;41.30;94746.00;10281995;28;20054;-58
2022/04/08 21:08:27;;;;;;;3.83;1.40;;;;;;;20.26;41.42;94747.94;10288999;28;20051;-58
2022/04/08 21:13:47;;;;;;;1.85;1.15;;;;;;;20.24;41.23;94745.63;10263975;28;20404;-58
2022/04/08 21:19:07;;;;;;;1.63;1.00;;;;;;;20.24;41.18;94723.22;10293436;28;20055;-58
2022/04/08 21:24:27;;;;;;;2.20;1.02;;;;;;;20.24;41.05;94715.09;10307345;28;20047;-58
2022/04/08 21:29:47;;;;;;;2.25;1.20;;;;;;;20.23;41.13;94702.72;10256625;29;20670;-58
2022/04/08 21:35:06;;;;;;;2.60;1.23;;;;;;;20.24;41.01;94709.69;10269432;28;20047;-57
2022/04/08 21:40:26;;;;;;;2.15;1.20;;;;;;;20.23;41.10;94735.16;10229979;28;20072;-58
2022/04/08 21:45:45;;;;;;;2.75;1.17;;;;;;;20.22;41.15;94714.72;10246749;29;20063;-57
2022/04/08 21:51:05;;;;;;;2.53;1.08;;;;;;;20.21;41.22;94703.13;10268942;28;20122;-58
2022/04/08 21:56:25;;;;;;;2.72;1.20;;;;;;;20.22;41.27;94698.47;10260348;28;20055;-57
2022/04/08 22:01:44;;;;;;;1.70;1.10;;;;;;;20.22;41.27;94698.47;10286896;28;20260;-58
2022/04/08 22:07:04;;;;;;;1.20;1.10;;;;;;;20.20;41.31;94701.56;10268720;28;20051;-58
2022/04/08 22:12:23;;;;;;;2.20;1.10;;;;;;;20.20;41.21;94701.56;10256031;29;20588;-56
2022/04/08 22:17:43;;;;;;;3.63;1.25;;;;;;;20.19;41.28;94689.22;10268120;28;20051;-57
2022/04/08 22:23:02;;;;;;;2.03;1.30;;;;;;;20.15;41.36;94683.78;10267946;28;20047;-58
2022/04/08 22:28:22;;;;;;;1.92;1.20;;;;;;;20.18;41.38;94676.84;10285237;28;20062;-58
2022/04/08 22:33:41;;;;;;;2.38;1.15;;;;;;;20.16;41.40;94635.88;10307556;28;20043;-58
2022/04/08 22:39:00;;;;;;;3.05;1.27;;;;;;;20.14;41.36;94632.78;10305142;28;20043;-58
2022/04/08 22:44:19;;;;;;;1.35;1.00;;;;;;;20.13;41.38;94639.34;10293838;28;20422;-58
2022/04/08 22:49:38;;;;;;;1.90;1.10;;;;;;;20.12;41.44;94608.84;10294065;28;20391;-57
2022/04/08 22:54:58;;;;;;;1.98;1.15;;;;;;;20.11;41.42;94569.47;10294192;28;20121;-58
2022/04/08 23:00:19;;;;;;;2.83;1.10;;;;;;;20.10;41.42;94559.03;10293275;28;20050;-58
2022/04/08 23:05:39;;;;;;;1.10;0.98;;;;;;;20.08;41.33;94542.41;10279374;28;20055;-58
2022/04/08 23:10:58;;;;;;;1.90;1.08;;;;;;;20.07;41.32;94536.25;10292852;28;20434;-58
2022/04/08 23:16:17;;;;;;;1.63;0.90;;;;;;;20.07;41.38;94521.94;10293416;28;20078;-58
2022/04/08 23:21:36;;;;;;;1.38;1.02;;;;;;;20.05;41.40;94498.03;10305952;28;20063;-58
2022/04/08 23:26:57;;;;;;;2.40;1.05;;;;;;;20.06;41.42;94485.28;10292234;28;20058;-58
2022/04/08 23:32:16;;;;;;;1.55;0.93;;;;;;;20.03;41.47;94527.34;10291175;28;20054;-58
2022/04/08 23:37:36;;;;;;;1.95;1.00;;;;;;;20.03;41.34;94511.13;10282323;28;20105;-57
2022/04/08 23:42:55;;;;;;;1.67;1.10;;;;;;;20.03;41.47;94502.25;10253690;28;20082;-57
2022/04/08 23:48:14;;;;;;;1.35;0.93;;;;;;;20.01;41.49;94494.50;10292027;28;20058;-58
2022/04/08 23:53:34;;;;;;;1.67;1.08;;;;;;;20.00;41.42;94492.22;10291841;28;20425;-58
2022/04/08 23:58:54;;;;;;;1.05;0.85;;;;;;;19.99;41.55;94487.94;10291235;28;20190;-57
